createdAt,value
2022-09-18T04:45:56.300Z,1000.11
2022-09-18T04:46:57.327Z,1000.05
2022-09-18T04:47:57.270Z,1000.07
2022-09-18T04:48:57.277Z,1000.07
2022-09-18T04:49:57.259Z,1000.07
2022-09-18T04:50:57.241Z,1000.11
2022-09-18T04:51:57.231Z,1000.10
2022-09-18T04:52:57.226Z,1000.08
2022-09-18T04:53:57.208Z,1000.09
2022-09-18T04:54:57.209Z,1000.11
2022-09-18T04:55:57.192Z,1000.11
2022-09-18T04:56:57.174Z,1000.10
2022-09-18T04:57:57.165Z,1000.05
2022-09-18T04:58:57.168Z,1000.06
2022-09-18T04:59:57.157Z,1000.02
2022-09-18T05:00:57.174Z,1000.04
2022-09-18T05:01:57.225Z,1000.05
2022-09-18T05:02:57.108Z,1000.08
2022-09-18T05:03:57.102Z,1000.05
2022-09-18T05:04:57.105Z,1000.07
2022-09-18T05:05:57.087Z,1000.04
2022-09-18T05:06:57.062Z,1000.02
2022-09-18T05:07:57.060Z,999.99
2022-09-18T05:08:57.040Z,1000.02
2022-09-18T05:09:57.055Z,1000.04
2022-09-18T05:10:57.036Z,1000.07
2022-09-18T05:11:57.031Z,1000.03
2022-09-18T05:12:57.005Z,1000.03
2022-09-18T05:13:57.105Z,1000.04
2022-09-18T05:14:56.999Z,1000.01
2022-09-18T05:15:57.019Z,1000.02
2022-09-18T05:16:56.954Z,1000.05
2022-09-18T05:17:56.951Z,1000.06
2022-09-18T05:18:56.934Z,1000.07
2022-09-18T05:19:56.945Z,1000.04
2022-09-18T05:20:56.910Z,1000.00
2022-09-18T05:21:56.909Z,999.98
2022-09-18T05:22:56.890Z,1000.00
2022-09-18T05:23:56.890Z,1000.02
2022-09-18T05:24:56.880Z,1000.03
2022-09-18T05:25:56.861Z,1000.05
2022-09-18T05:26:56.844Z,1000.06
2022-09-18T05:27:56.846Z,1000.08
2022-09-18T05:28:56.827Z,1000.08
2022-09-18T05:29:56.844Z,1000.09
2022-09-18T05:30:56.854Z,1000.10
2022-09-18T05:31:56.801Z,1000.09
2022-09-18T05:32:59.158Z,1000.08
2022-09-18T05:33:56.778Z,1000.11
2022-09-18T05:34:56.783Z,1000.09
2022-09-18T05:35:56.757Z,1000.13
2022-09-18T05:36:56.744Z,1000.12
2022-09-18T05:37:56.764Z,1000.12
2022-09-18T05:38:56.724Z,1000.11
2022-09-18T05:39:56.820Z,1000.09
2022-09-18T05:40:56.701Z,1000.09
2022-09-18T05:41:56.710Z,1000.06
2022-09-18T05:42:56.681Z,1000.04
2022-09-18T05:43:56.676Z,1000.04
2022-09-18T05:44:59.891Z,1000.04
2022-09-18T05:45:56.671Z,1000.10
2022-09-18T05:46:56.689Z,999.99
2022-09-18T05:47:56.673Z,1000.07
2022-09-18T05:48:56.617Z,1000.08
2022-09-18T05:49:56.615Z,1000.08
2022-09-18T05:50:56.605Z,1000.07
2022-09-18T05:51:56.596Z,1000.02
2022-09-18T05:52:56.571Z,1000.05
2022-09-18T05:53:56.565Z,1000.07
2022-09-18T05:54:56.594Z,1000.07
2022-09-18T05:55:56.560Z,1000.09
2022-09-18T05:56:56.542Z,1000.05
2022-09-18T05:57:56.523Z,1000.14
2022-09-18T05:58:56.507Z,1000.13
2022-09-18T05:59:56.502Z,1000.11
2022-09-18T06:00:56.502Z,1000.14
2022-09-18T06:01:56.503Z,1000.15
2022-09-18T06:02:56.524Z,1000.14
2022-09-18T06:03:56.462Z,1000.16
2022-09-18T06:04:56.446Z,1000.18
2022-09-18T06:05:56.466Z,1000.17
2022-09-18T06:06:56.427Z,1000.16
2022-09-18T06:07:59.645Z,1000.17
2022-09-18T06:08:56.409Z,1000.20
2022-09-18T06:09:56.396Z,1000.19
2022-09-18T06:10:56.405Z,1000.19
2022-09-18T06:11:56.374Z,1000.15
2022-09-18T06:12:56.400Z,1000.22
2022-09-18T06:13:56.368Z,1000.23
2022-09-18T06:14:56.347Z,1000.21
2022-09-18T06:15:56.425Z,1000.21
2022-09-18T06:16:56.330Z,1000.19
2022-09-18T06:17:56.319Z,1000.21
2022-09-18T06:18:56.312Z,1000.18
2022-09-18T06:19:56.284Z,1000.11
2022-09-18T06:20:56.296Z,1000.20
2022-09-18T06:21:56.272Z,1000.19
2022-09-18T06:22:56.262Z,1000.15
2022-09-18T06:23:56.248Z,1000.22
2022-09-18T06:24:56.235Z,1000.19
2022-09-18T06:25:56.245Z,1000.20
2022-09-18T06:26:56.216Z,1000.21
2022-09-18T06:27:56.205Z,1000.17
2022-09-18T06:28:56.192Z,1000.21
2022-09-18T06:29:56.195Z,1000.19
2022-09-18T06:30:56.240Z,1000.19
2022-09-18T06:31:56.304Z,1000.17
2022-09-18T06:32:56.166Z,1000.16
2022-09-18T06:33:56.151Z,1000.17
2022-09-18T06:34:56.132Z,1000.17
2022-09-18T06:35:56.138Z,1000.17
2022-09-18T06:36:56.114Z,1000.15
2022-09-18T06:37:56.126Z,1000.16
2022-09-18T06:38:56.087Z,1000.19
2022-09-18T06:39:56.102Z,1000.16
2022-09-18T06:40:56.090Z,1000.09
2022-09-18T06:41:56.061Z,1000.17
2022-09-18T06:42:56.049Z,1000.16
2022-09-18T06:43:56.043Z,1000.16
2022-09-18T06:44:56.037Z,1000.16
2022-09-18T06:45:56.036Z,1000.15
2022-09-18T06:46:56.119Z,1000.17
2022-09-18T06:47:56.005Z,1000.18
2022-09-18T06:48:55.987Z,1000.18
2022-09-18T06:49:55.977Z,1000.20
2022-09-18T06:50:55.985Z,1000.20
2022-09-18T06:51:55.956Z,1000.22
2022-09-18T06:52:55.937Z,1000.19
2022-09-18T06:53:55.943Z,1000.19
2022-09-18T06:54:55.920Z,1000.19
2022-09-18T06:55:55.922Z,1000.20
2022-09-18T06:56:55.894Z,1000.21
2022-09-18T06:57:55.916Z,1000.23
2022-09-18T06:58:55.876Z,1000.25
2022-09-18T06:59:55.875Z,1000.22
2022-09-18T07:00:55.978Z,1000.22
2022-09-18T07:01:55.877Z,1000.23
2022-09-18T07:02:55.832Z,1000.24
2022-09-18T07:03:55.847Z,1000.24
2022-09-18T07:04:55.827Z,1000.23
2022-09-18T07:05:55.820Z,1000.20
2022-09-18T07:06:55.790Z,1000.22
2022-09-18T07:07:55.789Z,1000.20
2022-09-18T07:08:55.780Z,1000.20
2022-09-18T07:09:55.765Z,1000.23
2022-09-18T07:10:55.766Z,1000.22
2022-09-18T07:11:55.742Z,1000.18
2022-09-18T07:12:55.757Z,1000.14
2022-09-18T07:13:55.724Z,1000.18
2022-09-18T07:14:55.705Z,1000.16
2022-09-18T07:15:55.750Z,1000.17
2022-09-18T07:16:55.720Z,1000.17
2022-09-18T07:17:55.679Z,1000.18
2022-09-18T07:18:55.673Z,1000.18
2022-09-18T07:19:55.652Z,1000.15
2022-09-18T07:20:55.671Z,1000.17
2022-09-18T07:21:55.642Z,1000.15
2022-09-18T07:22:55.628Z,1000.15
2022-09-18T07:23:55.635Z,1000.09
2022-09-18T07:24:55.616Z,1000.13
2022-09-18T07:25:55.651Z,1000.12
2022-09-18T07:26:55.587Z,1000.12
2022-09-18T07:27:55.574Z,1000.13
2022-09-18T07:28:55.560Z,1000.10
2022-09-18T07:29:55.554Z,1000.15
2022-09-18T07:30:55.624Z,1000.11
2022-09-18T07:31:55.535Z,1000.16
2022-09-18T07:32:55.519Z,1000.13
2022-09-18T07:33:55.511Z,1000.15
2022-09-18T07:34:55.508Z,1000.13
2022-09-18T07:35:55.509Z,1000.15
2022-09-18T07:36:55.482Z,1000.18
2022-09-18T07:37:55.492Z,1000.18
2022-09-18T07:38:55.462Z,1000.17
2022-09-18T07:39:55.569Z,1000.16
2022-09-18T07:40:55.489Z,1000.17
2022-09-18T07:41:55.427Z,1000.15
2022-09-18T07:42:55.425Z,1000.12
2022-09-18T07:43:55.413Z,1000.10
2022-09-18T07:44:55.423Z,1000.13
2022-09-18T07:45:55.395Z,1000.10
2022-09-18T07:46:55.568Z,1000.07
2022-09-18T07:47:55.527Z,1000.10
2022-09-18T07:48:55.365Z,1000.09
2022-09-18T07:49:55.361Z,1000.11
2022-09-18T07:50:55.341Z,1000.12
2022-09-18T07:51:55.325Z,1000.09
2022-09-18T07:52:55.325Z,1000.07
2022-09-18T07:53:55.309Z,1000.07
2022-09-18T07:54:55.333Z,1000.07
2022-09-18T07:55:55.287Z,1000.10
2022-09-18T07:56:55.265Z,1000.09
2022-09-18T07:57:55.311Z,1000.12
2022-09-18T07:58:55.240Z,1000.16
2022-09-18T07:59:55.256Z,1000.14
2022-09-18T08:00:55.225Z,1000.14
2022-09-18T08:01:55.417Z,1000.13
2022-09-18T08:02:55.320Z,1000.10
2022-09-18T08:03:55.198Z,1000.11
2022-09-18T08:04:55.189Z,1000.11
2022-09-18T08:05:55.184Z,1000.12
2022-09-18T08:06:55.156Z,1000.10
2022-09-18T08:07:55.207Z,1000.10
2022-09-18T08:08:55.397Z,1000.09
2022-09-18T08:09:55.142Z,1000.11
2022-09-18T08:10:55.116Z,1000.14
2022-09-18T08:11:55.106Z,1000.09
2022-09-18T08:12:55.094Z,1000.10
2022-09-18T08:13:55.090Z,1000.15
2022-09-18T08:14:55.083Z,1000.06
2022-09-18T08:15:55.102Z,1000.11
2022-09-18T08:16:55.046Z,1000.13
2022-09-18T08:17:55.043Z,1000.10
2022-09-18T08:18:55.033Z,1000.08
2022-09-18T08:19:55.032Z,1000.08
2022-09-18T08:20:55.005Z,1000.08
2022-09-18T08:21:55.008Z,1000.07
2022-09-18T08:22:54.985Z,1000.08
2022-09-18T08:23:54.977Z,1000.06
2022-09-18T08:24:54.977Z,1000.02
2022-09-18T08:25:54.955Z,999.98
2022-09-18T08:26:54.941Z,999.95
2022-09-18T08:27:54.942Z,999.95
2022-09-18T08:28:54.924Z,1000.00
2022-09-18T08:29:54.928Z,1000.01
2022-09-18T08:30:54.895Z,999.92
2022-09-18T08:31:54.972Z,999.97
2022-09-18T08:32:54.885Z,999.95
2022-09-18T08:33:54.871Z,1000.01
2022-09-18T08:34:54.867Z,1000.01
2022-09-18T08:35:54.857Z,1000.04
2022-09-18T08:36:54.835Z,1000.05
2022-09-18T08:37:54.827Z,1000.04
2022-09-18T08:38:54.828Z,1000.04
2022-09-18T08:39:55.070Z,1000.06
2022-09-18T08:40:54.789Z,1000.05
2022-09-18T08:41:54.786Z,1000.05
2022-09-18T08:42:54.772Z,1000.04
2022-09-18T08:43:54.783Z,1000.06
2022-09-18T08:44:54.752Z,1000.04
2022-09-18T08:45:54.755Z,1000.06
2022-09-18T08:46:54.781Z,1000.05
2022-09-18T08:47:54.725Z,1000.05
2022-09-18T08:48:54.710Z,1000.02
2022-09-18T08:49:54.711Z,999.99
2022-09-18T08:50:54.694Z,1000.02
2022-09-18T08:51:54.703Z,1000.00
2022-09-18T08:52:54.683Z,1000.00
2022-09-18T08:53:54.650Z,1000.01
2022-09-18T08:54:54.663Z,999.97
2022-09-18T08:55:54.627Z,1000.00
2022-09-18T08:56:54.624Z,1000.00
2022-09-18T08:57:54.613Z,1000.01
2022-09-18T08:58:54.611Z,1000.01
2022-09-18T08:59:54.611Z,999.99
2022-09-18T09:00:54.667Z,999.98
2022-09-18T09:01:54.609Z,999.99
2022-09-18T09:02:54.572Z,999.97
2022-09-18T09:03:54.548Z,999.96
2022-09-18T09:04:54.551Z,999.94
2022-09-18T09:05:54.524Z,999.95
2022-09-18T09:06:54.518Z,999.94
2022-09-18T09:07:54.534Z,999.94
2022-09-18T09:08:54.533Z,999.93
2022-09-18T09:09:54.545Z,999.95
2022-09-18T09:10:54.480Z,999.89
2022-09-18T09:11:54.460Z,999.93
2022-09-18T09:12:54.458Z,999.87
2022-09-18T09:13:54.451Z,999.87
2022-09-18T09:14:57.446Z,999.84
2022-09-18T09:15:54.529Z,999.87
2022-09-18T09:16:54.429Z,999.87
2022-09-18T09:17:54.392Z,999.84
2022-09-18T09:18:54.388Z,999.87
2022-09-18T09:19:54.383Z,999.86
2022-09-18T09:20:54.410Z,999.91
2022-09-18T09:21:54.363Z,999.88
2022-09-18T09:22:54.345Z,999.83
2022-09-18T09:23:54.332Z,999.80
2022-09-18T09:24:54.334Z,999.75
2022-09-18T09:25:54.337Z,999.85
2022-09-18T09:26:54.322Z,999.81
2022-09-18T09:27:54.285Z,999.85
2022-09-18T09:28:54.286Z,999.84
2022-09-18T09:29:54.265Z,999.85
2022-09-18T09:30:54.274Z,999.87
2022-09-18T09:31:54.374Z,999.85
2022-09-18T09:32:54.278Z,999.85
2022-09-18T09:33:54.222Z,999.87
2022-09-18T09:34:54.217Z,999.86
2022-09-18T09:35:54.213Z,999.75
2022-09-18T09:36:54.195Z,999.87
2022-09-18T09:37:54.177Z,999.93
2022-09-18T09:38:54.197Z,999.99
2022-09-18T09:39:54.224Z,999.96
2022-09-18T09:40:54.194Z,999.98
2022-09-18T09:41:54.163Z,999.98
2022-09-18T09:42:54.133Z,1000.00
2022-09-18T09:43:54.118Z,999.98
2022-09-18T09:44:54.124Z,1000.01
2022-09-18T09:45:54.142Z,1000.02
2022-09-18T09:46:54.161Z,1000.01
2022-09-18T09:47:54.077Z,1000.00
2022-09-18T09:48:54.086Z,999.96
2022-09-18T09:49:54.056Z,999.99
2022-09-18T09:50:54.054Z,999.99
2022-09-18T09:51:54.027Z,1000.04
2022-09-18T09:52:54.133Z,1000.01
2022-09-18T09:53:54.009Z,1000.02
2022-09-18T09:54:54.004Z,999.97
2022-09-18T09:55:54.023Z,999.98
2022-09-18T09:56:53.992Z,1000.01
2022-09-18T09:57:53.968Z,1000.11
2022-09-18T09:58:53.963Z,1000.09
2022-09-18T09:59:53.948Z,1000.10
2022-09-18T10:00:54.058Z,1000.07
2022-09-18T10:01:53.971Z,1000.10
2022-09-18T10:02:53.928Z,1000.08
2022-09-18T10:03:53.904Z,1000.09
2022-09-18T10:04:53.914Z,1000.12
2022-09-18T10:05:54.099Z,1000.08
2022-09-18T10:06:53.877Z,1000.12
2022-09-18T10:07:53.865Z,1000.12
2022-09-18T10:08:53.878Z,1000.15
2022-09-18T10:09:53.841Z,1000.05
2022-09-18T10:10:53.854Z,1000.06
2022-09-18T10:11:57.156Z,1000.10
2022-09-18T10:12:53.819Z,1000.06
2022-09-18T10:13:53.801Z,1000.11
2022-09-18T10:14:53.792Z,1000.06
2022-09-18T10:15:53.841Z,1000.01
2022-09-18T10:16:53.771Z,1000.01
2022-09-18T10:17:53.761Z,1000.02
2022-09-18T10:18:53.748Z,999.93
2022-09-18T10:19:53.734Z,999.99
2022-09-18T10:20:53.731Z,999.93
2022-09-18T10:21:53.739Z,999.97
2022-09-18T10:22:53.716Z,999.99
2022-09-18T10:23:53.693Z,999.99
2022-09-18T10:24:53.686Z,999.96
2022-09-18T10:25:53.680Z,999.93
2022-09-18T10:26:53.673Z,999.92
2022-09-18T10:27:53.650Z,999.94
2022-09-18T10:28:53.755Z,999.90
2022-09-18T10:29:53.634Z,999.83
2022-09-18T10:30:53.629Z,999.79
2022-09-18T10:31:53.746Z,999.77
2022-09-18T10:32:53.601Z,999.76
2022-09-18T10:33:53.598Z,999.77
2022-09-18T10:34:53.596Z,999.78
2022-09-18T10:35:53.574Z,999.79
2022-09-18T10:36:53.571Z,999.80
2022-09-18T10:37:53.564Z,999.83
2022-09-18T10:38:53.540Z,999.83
2022-09-18T10:39:53.588Z,999.82
2022-09-18T10:40:53.516Z,999.81
2022-09-18T10:41:53.515Z,999.83
2022-09-18T10:42:53.499Z,999.78
2022-09-18T10:43:53.513Z,999.80
2022-09-18T10:44:54.970Z,999.82
2022-09-18T10:45:53.460Z,999.82
2022-09-18T10:46:53.511Z,999.84
2022-09-18T10:47:53.437Z,999.88
2022-09-18T10:48:53.429Z,999.88
2022-09-18T10:49:53.415Z,999.91
2022-09-18T10:50:53.407Z,999.89
2022-09-18T10:51:53.418Z,999.94
2022-09-18T10:52:53.392Z,999.91
2022-09-18T10:53:53.371Z,999.92
2022-09-18T10:54:53.377Z,999.91
2022-09-18T10:55:55.974Z,999.91
2022-09-18T10:56:53.370Z,999.88
2022-09-18T10:57:53.357Z,999.86
2022-09-18T10:58:53.325Z,999.83
2022-09-18T10:59:53.305Z,999.80
2022-09-18T11:00:53.353Z,999.80
2022-09-18T11:01:53.350Z,999.82
2022-09-18T11:02:53.316Z,999.76
2022-09-18T11:03:53.260Z,999.73
2022-09-18T11:04:53.255Z,999.75
2022-09-18T11:05:53.267Z,999.76
2022-09-18T11:06:53.246Z,999.78
2022-09-18T11:07:53.285Z,999.81
2022-09-18T11:08:53.208Z,999.81
2022-09-18T11:09:53.193Z,999.79
2022-09-18T11:10:53.185Z,999.79
2022-09-18T11:11:53.179Z,999.80
2022-09-18T11:12:55.749Z,999.77
2022-09-18T11:13:53.146Z,999.76
2022-09-18T11:14:53.158Z,999.77
2022-09-18T11:15:53.187Z,999.76
2022-09-18T11:16:53.130Z,999.79
2022-09-18T11:17:53.158Z,999.76
2022-09-18T11:18:53.110Z,999.75
2022-09-18T11:19:53.083Z,999.78
2022-09-18T11:20:53.090Z,999.76
2022-09-18T11:21:53.086Z,999.75
2022-09-18T11:22:53.056Z,999.74
2022-09-18T11:23:53.042Z,999.73
2022-09-18T11:24:53.035Z,999.74
2022-09-18T11:25:53.015Z,999.75
2022-09-18T11:26:53.037Z,999.75
2022-09-18T11:27:52.997Z,999.77
2022-09-18T11:28:52.991Z,999.76
2022-09-18T11:29:52.979Z,999.81
2022-09-18T11:30:52.975Z,999.80
2022-09-18T11:31:53.016Z,999.78
2022-09-18T11:32:52.970Z,999.79
2022-09-18T11:33:52.939Z,999.79
2022-09-18T11:34:52.927Z,999.78
2022-09-18T11:35:52.923Z,999.77
2022-09-18T11:36:52.919Z,999.76
2022-09-18T11:37:52.921Z,999.74
2022-09-18T11:38:52.881Z,999.73
2022-09-18T11:39:52.935Z,999.75
2022-09-18T11:40:52.859Z,999.78
2022-09-18T11:41:52.887Z,999.73
2022-09-18T11:42:52.837Z,999.74
2022-09-18T11:43:52.821Z,999.76
2022-09-18T11:44:52.817Z,999.76
2022-09-18T11:45:52.800Z,999.75
2022-09-18T11:46:52.873Z,999.77
2022-09-18T11:47:52.794Z,999.73
2022-09-18T11:48:52.788Z,999.73
2022-09-18T11:49:52.755Z,999.77
2022-09-18T11:50:52.750Z,999.77
2022-09-18T11:51:52.744Z,999.78
2022-09-18T11:52:52.728Z,999.80
2022-09-18T11:53:52.713Z,999.79
2022-09-18T11:54:52.710Z,999.75
2022-09-18T11:55:52.686Z,999.76
2022-09-18T11:56:52.694Z,999.77
2022-09-18T11:57:52.699Z,999.73
2022-09-18T11:58:52.663Z,999.72
2022-09-18T11:59:52.650Z,999.73
2022-09-18T12:00:52.648Z,999.72
2022-09-18T12:01:52.729Z,999.73
2022-09-18T12:02:52.708Z,999.71
2022-09-18T12:03:52.597Z,999.70
2022-09-18T12:04:52.600Z,999.72
2022-09-18T12:05:52.600Z,999.73
2022-09-18T12:06:52.586Z,999.69
2022-09-18T12:07:51.215Z,999.69
2022-09-18T12:08:51.193Z,999.70
2022-09-18T12:09:51.174Z,999.68
2022-09-18T12:10:51.187Z,999.71
2022-09-18T12:11:51.225Z,999.70
2022-09-18T12:12:51.144Z,999.73
2022-09-18T12:13:51.152Z,999.69
2022-09-18T12:14:51.129Z,999.69
2022-09-18T12:15:51.161Z,999.69
2022-09-18T12:16:51.116Z,999.73
2022-09-18T12:17:51.086Z,999.70
2022-09-18T12:18:51.104Z,999.70
2022-09-18T12:19:51.065Z,999.71
2022-09-18T12:20:51.053Z,999.71
2022-09-18T12:21:51.057Z,999.73
2022-09-18T12:22:51.032Z,999.74
2022-09-18T12:23:51.045Z,999.74
2022-09-18T12:24:51.015Z,999.71
2022-09-18T12:25:50.991Z,999.68
2022-09-18T12:26:51.012Z,999.70
2022-09-18T12:27:50.969Z,999.70
2022-09-18T12:28:50.959Z,999.73
2022-09-18T12:29:50.956Z,999.74
2022-09-18T12:30:50.937Z,999.76
2022-09-18T12:31:50.975Z,999.72
2022-09-18T12:32:50.921Z,999.75
2022-09-18T12:33:50.897Z,999.72
2022-09-18T12:34:50.906Z,999.72
2022-09-18T12:35:50.908Z,999.73
2022-09-18T12:36:50.874Z,999.73
2022-09-18T12:37:50.877Z,999.73
2022-09-18T12:38:51.521Z,999.74
2022-09-18T12:39:51.535Z,999.69
2022-09-18T12:40:51.508Z,999.68
2022-09-18T12:41:51.498Z,999.69
2022-09-18T12:42:51.477Z,999.71
2022-09-18T12:43:51.463Z,999.74
2022-09-18T12:44:51.449Z,999.75
2022-09-18T12:45:51.485Z,999.77
2022-09-18T12:46:51.440Z,999.76
2022-09-18T12:47:51.458Z,999.76
2022-09-18T12:48:51.409Z,999.77
2022-09-18T12:49:51.396Z,999.71
2022-09-18T12:50:51.412Z,999.72
2022-09-18T12:51:51.385Z,999.73
2022-09-18T12:53:08.702Z,999.70
2022-09-18T12:53:51.362Z,999.70
2022-09-18T12:54:51.341Z,999.69
2022-09-18T12:55:51.338Z,999.69
2022-09-18T12:56:51.357Z,999.69
2022-09-18T12:57:51.336Z,999.69
2022-09-18T12:58:51.297Z,999.67
2022-09-18T12:59:51.279Z,999.68
2022-09-18T13:00:51.337Z,999.64
2022-09-18T13:01:51.296Z,999.58
2022-09-18T13:02:51.717Z,999.49
2022-09-18T13:03:51.237Z,999.43
2022-09-18T13:04:51.222Z,999.38
2022-09-18T13:05:51.247Z,999.28
2022-09-18T13:06:51.223Z,999.23
2022-09-18T13:07:51.196Z,999.28
2022-09-18T13:08:51.177Z,999.31
2022-09-18T13:09:51.184Z,999.27
2022-09-18T13:10:51.157Z,999.23
2022-09-18T13:11:51.159Z,999.22
2022-09-18T13:12:51.131Z,999.18
2022-09-18T13:13:51.140Z,999.11
2022-09-18T13:14:51.119Z,999.15
2022-09-18T13:15:51.194Z,999.09
2022-09-18T13:16:51.911Z,999.04
2022-09-18T13:17:51.824Z,999.03
2022-09-18T13:18:51.844Z,999.01
2022-09-18T13:19:51.786Z,998.95
2022-09-18T13:20:51.782Z,998.93
2022-09-18T13:21:51.776Z,998.93
2022-09-18T13:22:53.474Z,998.87
2022-09-18T13:23:51.747Z,998.84
2022-09-18T13:24:51.726Z,998.87
2022-09-18T13:25:51.741Z,998.88
2022-09-18T13:26:51.730Z,998.93
2022-09-18T13:27:51.708Z,998.91
2022-09-18T13:28:51.683Z,998.89
2022-09-18T13:29:51.677Z,998.89
2022-09-18T13:30:51.660Z,998.90
2022-09-18T13:31:51.725Z,998.95
2022-09-18T13:32:51.639Z,998.95
2022-09-18T13:33:51.751Z,998.98
2022-09-18T13:34:51.618Z,999.00
2022-09-18T13:35:51.626Z,999.01
2022-09-18T13:36:51.611Z,999.03
2022-09-18T13:37:51.589Z,999.05
2022-09-18T13:38:51.580Z,999.07
2022-09-18T13:40:09.414Z,999.07
2022-09-18T13:40:51.639Z,999.08
2022-09-18T13:41:51.559Z,999.08
2022-09-18T13:42:51.546Z,999.08
2022-09-18T13:43:51.542Z,999.08
2022-09-18T13:44:51.512Z,999.08
2022-09-18T13:45:51.507Z,999.08
2022-09-18T13:46:51.580Z,999.08
2022-09-18T13:47:51.475Z,999.04
2022-09-18T13:48:51.586Z,999.06
2022-09-18T13:49:52.087Z,999.03
2022-09-18T13:50:51.443Z,999.02
2022-09-18T13:51:51.451Z,999.02
2022-09-18T13:52:51.419Z,999.02
2022-09-18T13:53:51.409Z,999.02
2022-09-18T13:54:51.400Z,999.01
2022-09-18T13:55:51.400Z,999.02
2022-09-18T13:56:51.373Z,999.04
2022-09-18T13:57:51.392Z,999.04
2022-09-18T13:58:51.351Z,999.05
2022-09-18T13:59:51.351Z,999.03
2022-09-18T14:00:51.360Z,999.05
2022-09-18T14:01:51.368Z,999.08
2022-09-18T14:02:51.327Z,999.03
2022-09-18T14:03:51.300Z,999.06
2022-09-18T14:04:51.280Z,999.09
2022-09-18T14:05:51.279Z,999.09
2022-09-18T14:06:51.259Z,999.08
2022-09-18T14:07:51.279Z,999.09
2022-09-18T14:08:51.338Z,999.12
2022-09-18T14:09:51.233Z,999.10
2022-09-18T14:11:11.735Z,999.09
2022-09-18T14:11:51.218Z,999.13
2022-09-18T14:12:51.204Z,999.16
2022-09-18T14:13:51.229Z,999.19
2022-09-18T14:14:51.175Z,999.18
2022-09-18T14:15:51.218Z,999.17
2022-09-18T14:16:51.158Z,999.18
2022-09-18T14:17:51.190Z,999.21
2022-09-18T14:18:51.130Z,999.20
2022-09-18T14:19:51.123Z,999.19
2022-09-18T14:20:51.107Z,999.23
2022-09-18T14:21:51.102Z,999.24
2022-09-18T14:22:51.099Z,999.23
2022-09-18T14:23:51.129Z,999.23
2022-09-18T14:24:51.063Z,999.25
2022-09-18T14:25:51.059Z,999.22
2022-09-18T14:26:51.041Z,999.23
2022-09-18T14:27:51.053Z,999.21
2022-09-18T14:28:51.024Z,999.21
2022-09-18T14:29:51.024Z,999.19
2022-09-18T14:30:51.017Z,999.16
2022-09-18T14:31:51.032Z,999.15
2022-09-18T14:32:50.990Z,999.20
2022-09-18T14:33:50.977Z,999.18
2022-09-18T14:34:50.958Z,999.19
2022-09-18T14:35:50.949Z,999.19
2022-09-18T14:36:50.939Z,999.19
2022-09-18T14:37:50.944Z,999.17
2022-09-18T14:38:50.953Z,999.17
2022-09-18T14:39:50.908Z,999.16
2022-09-18T14:40:50.900Z,999.18
2022-09-18T14:41:50.904Z,999.18
2022-09-18T14:42:50.895Z,999.16
2022-09-18T14:43:50.880Z,999.16
2022-09-18T14:44:50.852Z,999.13
2022-09-18T14:45:50.933Z,999.13
2022-09-18T14:46:50.838Z,999.12
2022-09-18T14:47:50.837Z,999.13
2022-09-18T14:48:50.820Z,999.10
2022-09-18T14:49:50.807Z,999.09
2022-09-18T14:50:50.797Z,999.09
2022-09-18T14:52:03.507Z,999.10
2022-09-18T14:52:50.789Z,999.12
2022-09-18T14:53:50.807Z,999.13
2022-09-18T14:54:50.762Z,999.13
2022-09-18T14:55:50.744Z,999.13
2022-09-18T14:56:50.736Z,999.13
2022-09-18T14:57:50.731Z,999.10
2022-09-18T14:58:50.743Z,999.10
2022-09-18T14:59:50.702Z,999.08
2022-09-18T15:00:50.729Z,999.11
2022-09-18T15:01:50.711Z,999.11
2022-09-18T15:02:50.684Z,999.07
2022-09-18T15:03:50.675Z,999.06
2022-09-18T15:04:50.699Z,999.03
2022-09-18T15:05:50.653Z,998.99
2022-09-18T15:06:50.624Z,998.99
2022-09-18T15:07:50.631Z,998.92
2022-09-18T15:08:50.608Z,998.90
2022-09-18T15:09:50.599Z,998.89
2022-09-18T15:10:50.585Z,998.89
2022-09-18T15:12:02.199Z,998.84
2022-09-18T15:12:50.591Z,998.89
2022-09-18T15:13:50.557Z,998.87
2022-09-18T15:14:50.543Z,998.82
2022-09-18T15:15:50.634Z,998.79
2022-09-18T15:16:50.522Z,998.73
2022-09-18T15:17:50.531Z,998.71
2022-09-18T15:18:50.497Z,998.69
2022-09-18T15:19:50.526Z,998.68
2022-09-18T15:20:50.484Z,998.72
2022-09-18T15:21:50.482Z,998.68
2022-09-18T15:22:50.483Z,998.68
2022-09-18T15:23:50.458Z,998.68
2022-09-18T15:24:50.443Z,998.69
2022-09-18T15:25:50.458Z,998.68
2022-09-18T15:26:54.273Z,998.62
2022-09-18T15:27:50.439Z,998.60
2022-09-18T15:28:50.408Z,998.61
2022-09-18T15:29:50.415Z,998.58
2022-09-18T15:30:50.386Z,998.56
2022-09-18T15:31:50.471Z,998.55
2022-09-18T15:32:50.398Z,998.52
2022-09-18T15:33:50.368Z,998.55
2022-09-18T15:34:50.352Z,998.56
2022-09-18T15:35:50.361Z,998.61
2022-09-18T15:36:50.334Z,998.71
2022-09-18T15:37:50.341Z,998.71
2022-09-18T15:38:50.316Z,998.73
2022-09-18T15:39:50.306Z,998.71
2022-09-18T15:40:50.293Z,998.72
2022-09-18T15:41:50.283Z,998.73
2022-09-18T15:42:50.295Z,998.76
2022-09-18T15:43:50.291Z,998.74
2022-09-18T15:44:50.264Z,998.73
2022-09-18T15:45:50.262Z,998.71
2022-09-18T15:46:50.299Z,998.68
2022-09-18T15:47:50.236Z,998.60
2022-09-18T15:48:50.217Z,998.65
2022-09-18T15:49:50.213Z,998.68
2022-09-18T15:50:50.202Z,998.66
2022-09-18T15:51:50.185Z,998.60
2022-09-18T15:52:50.190Z,998.61
2022-09-18T15:53:50.162Z,998.62
2022-09-18T15:54:50.156Z,998.62
2022-09-18T15:55:53.410Z,998.64
2022-09-18T15:56:50.133Z,998.70
2022-09-18T15:57:50.131Z,998.72
2022-09-18T15:58:50.107Z,998.74
2022-09-18T15:59:50.119Z,998.76
2022-09-18T16:00:50.177Z,998.80
2022-09-18T16:01:50.170Z,998.81
2022-09-18T16:02:50.073Z,998.82
2022-09-18T16:03:50.054Z,998.82
2022-09-18T16:04:50.050Z,998.77
2022-09-18T16:05:50.046Z,998.78
2022-09-18T16:06:50.022Z,998.83
2022-09-18T16:07:50.037Z,998.85
2022-09-18T16:08:50.008Z,998.89
2022-09-18T16:09:50.032Z,998.89
2022-09-18T16:10:50.053Z,998.92
2022-09-18T16:11:49.972Z,998.95
2022-09-18T16:12:49.994Z,998.93
2022-09-18T16:13:49.963Z,998.95
2022-09-18T16:14:49.938Z,998.94
2022-09-18T16:15:49.925Z,998.96
2022-09-18T16:16:49.914Z,998.91
2022-09-18T16:17:50.202Z,998.96
2022-09-18T16:18:49.900Z,998.93
2022-09-18T16:19:49.883Z,998.91
2022-09-18T16:20:49.897Z,998.90
2022-09-18T16:21:49.872Z,998.88
2022-09-18T16:22:49.848Z,998.91
2022-09-18T16:23:49.854Z,998.93
2022-09-18T16:24:49.839Z,998.92
2022-09-18T16:25:49.825Z,998.93
2022-09-18T16:26:49.816Z,998.96
2022-09-18T16:27:49.796Z,998.93
2022-09-18T16:28:49.820Z,998.99
2022-09-18T16:29:49.777Z,998.93
2022-09-18T16:30:49.771Z,998.95
2022-09-18T16:31:49.882Z,998.93
2022-09-18T16:32:49.741Z,998.93
2022-09-18T16:33:49.759Z,998.95
2022-09-18T16:34:49.721Z,998.92
2022-09-18T16:35:49.719Z,998.92
2022-09-18T16:36:49.700Z,998.92
2022-09-18T16:37:49.702Z,998.89
2022-09-18T16:38:49.736Z,998.88
2022-09-18T16:39:49.732Z,998.85
2022-09-18T16:40:49.659Z,998.87
2022-09-18T16:41:49.655Z,998.87
2022-09-18T16:42:49.641Z,998.87
2022-09-18T16:43:49.646Z,998.90
2022-09-18T16:44:49.647Z,998.93
2022-09-18T16:45:49.629Z,998.93
2022-09-18T16:46:49.691Z,998.92
2022-09-18T16:47:49.593Z,998.92
2022-09-18T16:48:49.587Z,998.93
2022-09-18T16:49:49.742Z,998.90
2022-09-18T16:50:49.556Z,998.88
2022-09-18T16:51:49.546Z,998.90
2022-09-18T16:52:49.531Z,998.96
2022-09-18T16:53:49.613Z,998.96
2022-09-18T16:54:49.520Z,998.95
2022-09-18T16:55:49.507Z,998.92
2022-09-18T16:56:49.496Z,998.91
2022-09-18T16:57:49.493Z,998.83
2022-09-18T16:58:49.504Z,998.92
2022-09-18T16:59:49.488Z,998.92
2022-09-18T17:00:49.508Z,998.97
2022-09-18T17:02:03.274Z,998.92
2022-09-18T17:02:49.478Z,998.95
2022-09-18T17:03:49.522Z,998.91
2022-09-18T17:04:49.422Z,998.90